Time;durP1;ratioP1;P1;durP2;ratioP2;P2;SDS_P1;SDS_P2;PMS_P1;PMS_P2;Temp;Humidity;BMP_temperature;BMP_pressure;BME280_temperature;BME280_humidity;BME280_pressure;Samples;Min_cycle;Max_cycle;Signal;HPM_P1;HPM_P2
2022/04/25 00:04:49;;;;;;;29.05;20.02;;;;;;;23.01;49.95;99158.59;20439501;28;100328;-76
2022/04/25 00:14:50;;;;;;;26.15;18.67;;;;;;;22.99;49.68;99158.72;20449582;28;97597;-76
2022/04/25 00:24:51;;;;;;;26.48;17.80;;;;;;;22.93;49.81;99162.00;20446183;28;98514;-75
2022/04/25 00:34:52;;;;;;;26.03;17.93;;;;;;;22.92;49.90;99165.63;20432374;28;97161;-76
2022/04/25 00:44:52;;;;;;;26.25;18.20;;;;;;;22.91;50.10;99148.16;20442385;28;96918;-75
2022/04/25 00:54:53;;;;;;;24.63;16.73;;;;;;;22.90;49.95;99146.50;20454344;28;97421;-75
2022/04/25 01:04:58;;;;;;;24.52;16.17;;;;;;;22.88;49.97;99145.03;20451581;28;98821;-75
2022/04/25 01:15:02;;;;;;;22.05;15.40;;;;;;;22.85;50.08;99151.41;20458336;28;98205;-75
2022/04/25 01:35:22;;;;;;;20.83;14.68;;;;;;;22.84;50.23;99170.91;20442073;28;97451;-75
2022/04/25 01:45:24;;;;;;;21.10;14.45;;;;;;;22.84;50.27;99178.81;20455451;28;97736;-76
2022/04/25 01:55:25;;;;;;;20.15;13.73;;;;;;;22.80;50.06;99185.38;20448825;28;98381;-76
2022/04/25 02:05:25;;;;;;;18.05;12.82;;;;;;;22.77;50.03;99181.25;20437943;28;98475;-74
2022/04/25 02:15:26;;;;;;;18.08;12.85;;;;;;;22.78;49.99;99168.91;20449600;28;99378;-75
2022/04/25 02:25:27;;;;;;;17.55;12.52;;;;;;;22.77;50.27;99149.59;20452270;28;100656;-75
2022/04/25 02:35:28;;;;;;;17.52;12.18;;;;;;;22.76;50.08;99150.56;20447857;28;97251;-75
2022/04/25 02:45:28;;;;;;;16.92;11.60;;;;;;;22.75;49.99;99171.84;20452506;28;97657;-76
2022/04/25 02:55:29;;;;;;;16.10;11.45;;;;;;;22.75;49.73;99185.84;20442934;28;99588;-75
2022/04/25 03:05:29;;;;;;;14.70;10.13;;;;;;;22.75;49.86;99206.16;20448736;28;98036;-75
2022/04/25 03:15:30;;;;;;;15.82;10.18;;;;;;;22.72;49.78;99228.41;20449085;28;97192;-75
2022/04/25 03:25:31;;;;;;;15.30;10.80;;;;;;;22.65;49.73;99235.28;20449279;28;97737;-75
2022/04/25 03:35:32;;;;;;;14.02;9.95;;;;;;;22.64;49.61;99231.84;20448316;28;98448;-76
2022/04/25 03:45:34;;;;;;;13.35;9.32;;;;;;;22.65;50.00;99227.38;20441945;28;97985;-75
2022/04/25 04:05:55;;;;;;;12.52;8.65;;;;;;;22.63;49.71;99227.53;20454475;28;96963;-75
2022/04/25 04:15:56;;;;;;;11.70;8.73;;;;;;;22.65;50.04;99237.94;20425655;28;100578;-77
2022/04/25 04:25:56;;;;;;;17.08;8.52;;;;;;;22.76;51.03;99242.94;20436898;28;97638;-74
2022/04/25 04:36:30;;;;;;;10.10;7.70;;;;;;;22.78;51.06;99235.69;20427965;28;97680;-76
2022/04/25 04:46:24;;;;;;;32.88;10.63;;;;;;;22.80;51.14;99233.75;20440750;28;101557;-75
2022/04/25 04:56:29;;;;;;;21.70;6.57;;;;;;;22.54;45.25;99239.03;20441679;28;97797;-75
2022/04/25 05:06:31;;;;;;;9.27;3.92;;;;;;;22.12;43.25;99244.94;20436704;28;100878;-75
2022/04/25 05:16:31;;;;;;;24.25;3.95;;;;;;;22.38;44.20;99259.03;20442913;28;97847;-75
2022/04/25 05:26:32;;;;;;;16.95;4.18;;;;;;;22.47;45.70;99265.22;20455491;28;97227;-76
2022/04/25 05:36:32;;;;;;;19.38;4.38;;;;;;;22.50;45.70;99271.97;20455234;28;98643;-76
2022/04/25 05:46:33;;;;;;;20.85;4.80;;;;;;;22.49;47.02;99292.25;20474137;28;97779;-76
2022/04/25 05:56:34;;;;;;;19.38;4.93;;;;;;;22.54;47.42;99297.91;20482646;28;96957;-77
2022/04/25 06:06:34;;;;;;;17.98;4.72;;;;;;;22.56;47.39;99292.47;20474561;28;97480;-75
2022/04/25 06:16:35;;;;;;;13.13;4.47;;;;;;;22.59;47.72;99302.69;20482615;28;98392;-77
2022/04/25 06:26:36;;;;;;;13.15;4.30;;;;;;;22.57;48.32;99291.50;20483254;28;96915;-77
2022/04/25 06:36:37;;;;;;;10.07;4.13;;;;;;;22.58;47.75;99294.94;20471752;28;97390;-77
2022/04/25 06:46:38;;;;;;;9.30;3.72;;;;;;;22.57;48.16;99278.31;20465836;28;97912;-76
2022/04/25 06:56:38;;;;;;;14.10;3.92;;;;;;;22.64;47.84;99289.88;20479436;28;96941;-76
2022/04/25 07:06:39;;;;;;;8.65;3.90;;;;;;;22.65;47.82;99302.06;20470710;28;96897;-76
2022/04/25 07:16:42;;;;;;;8.25;3.60;;;;;;;22.74;48.27;99312.69;20462936;28;97693;-77
2022/04/25 07:37:02;;;;;;;6.30;3.20;;;;;;;22.74;48.35;99320.59;20463192;28;97864;-76
2022/04/25 07:47:03;;;;;;;8.02;3.65;;;;;;;22.77;48.23;99315.03;20474607;28;96958;-75
2022/04/25 07:57:05;;;;;;;9.10;3.28;;;;;;;22.86;48.34;99314.94;20431002;28;100082;-74
2022/04/25 08:07:06;;;;;;;8.38;3.63;;;;;;;22.90;48.58;99331.28;20458606;28;99405;-77
2022/04/25 08:27:17;;;;;;;2.42;1.70;;;;;;;22.38;39.04;99332.88;20456496;28;99876;-75
2022/04/25 08:37:17;;;;;;;3.88;2.25;;;;;;;22.57;43.14;99336.34;20463942;28;97113;-77
2022/04/25 08:47:18;;;;;;;4.75;1.90;;;;;;;22.70;44.02;99328.84;20452088;28;97681;-78
2022/04/25 08:57:20;;;;;;;5.25;2.20;;;;;;;22.78;44.93;99333.34;20463002;28;96856;-78
2022/04/25 09:07:21;;;;;;;5.22;1.95;;;;;;;22.85;45.12;99344.94;20444728;28;100660;-77
2022/04/25 09:17:22;;;;;;;4.15;1.65;;;;;;;22.86;45.80;99356.31;20432291;28;100174;-77
2022/04/25 09:27:23;;;;;;;8.02;1.80;;;;;;;22.93;46.46;99357.34;20449168;28;100757;-76
2022/04/25 09:37:46;;;;;;;5.75;2.00;;;;;;;22.98;47.05;99365.63;20431563;28;100957;-78
2022/04/25 09:47:47;;;;;;;5.97;2.00;;;;;;;23.06;47.26;99378.06;20480453;28;98163;-80
2022/04/25 09:57:50;;;;;;;2.57;1.80;;;;;;;23.11;47.20;99364.41;20476837;28;97266;-78
2022/04/25 10:07:55;;;;;;;2.72;1.73;;;;;;;23.19;47.35;99372.38;20473060;28;96996;-78
2022/04/25 10:17:56;;;;;;;3.50;1.73;;;;;;;23.25;47.63;99392.88;20444436;28;98150;-79
2022/04/25 10:27:59;;;;;;;1.83;1.50;;;;;;;23.28;47.35;99395.22;20441315;28;101435;-80
2022/04/25 10:38:00;;;;;;;3.67;1.63;;;;;;;23.30;47.34;99400.34;20461948;28;98005;-78
2022/04/25 10:48:08;;;;;;;4.28;1.63;;;;;;;23.36;47.61;99412.91;20478213;28;101273;-78
2022/04/25 10:58:08;;;;;;;1.70;1.40;;;;;;;23.49;47.46;99423.88;20465652;28;98479;-79
2022/04/25 11:08:18;;;;;;;7.18;1.70;;;;;;;23.59;47.37;99421.13;20472950;28;97222;-80
2022/04/25 11:18:43;;;;;;;2.53;1.02;;;;;;;23.48;38.94;99439.91;20473796;28;98511;-74
2022/04/25 11:29:11;;;;;;;1.27;0.80;;;;;;;23.48;39.34;99459.22;20473078;28;98470;-79
2022/04/25 11:49:38;;;;;;;2.30;0.40;;;;;;;23.32;36.30;99475.81;20474823;28;97777;-79
2022/04/25 11:59:38;;;;;;;1.63;0.65;;;;;;;23.39;36.24;99494.50;20481406;28;97690;-78
2022/04/25 12:20:04;;;;;;;0.45;0.40;;;;;;;23.38;35.06;99495.50;20470845;28;97162;-77
2022/04/25 12:30:09;;;;;;;0.77;0.40;;;;;;;23.41;37.13;99497.84;20420730;28;97810;-76
2022/04/25 12:40:11;;;;;;;2.33;0.57;;;;;;;23.47;36.12;99501.66;20456431;28;98220;-78
2022/04/25 12:50:11;;;;;;;0.70;0.57;;;;;;;23.59;36.50;99496.94;20453993;28;102455;-78
2022/04/25 13:00:13;;;;;;;0.40;0.30;;;;;;;23.70;37.67;99486.09;20434023;28;97407;-78
2022/04/25 13:10:20;;;;;;;1.40;0.47;;;;;;;23.71;36.86;99495.69;20446839;28;97756;-80
2022/04/25 13:20:23;;;;;;;0.75;0.40;;;;;;;23.71;35.58;99494.88;20453809;28;99398;-79
2022/04/25 13:30:24;;;;;;;0.88;0.50;;;;;;;23.73;33.37;99501.66;20429902;28;97601;-78
2022/04/25 13:40:24;;;;;;;2.20;0.55;;;;;;;23.86;32.06;99510.97;20444184;28;97158;-79
2022/04/25 13:50:26;;;;;;;8.48;1.45;;;;;;;23.84;31.61;99511.13;20425046;28;100212;-79
2022/04/25 14:00:28;;;;;;;2.65;0.60;;;;;;;24.00;31.89;99510.41;20450602;28;99757;-80
2022/04/25 14:10:28;;;;;;;6.53;1.70;;;;;;;24.18;33.15;99515.59;20470732;28;97018;-80
2022/04/25 14:20:31;;;;;;;9.15;2.40;;;;;;;24.34;34.54;99514.81;20484131;28;101738;-81
2022/04/25 14:30:34;;;;;;;5.20;1.73;;;;;;;24.49;34.33;99516.84;20480370;28;96966;-81
2022/04/25 14:40:35;;;;;;;4.80;1.42;;;;;;;24.94;34.88;99512.97;20472679;28;98168;-78
2022/04/25 15:00:54;;;;;;;3.33;0.90;;;;;;;25.34;30.51;99531.66;20469692;28;97807;-81
2022/04/25 15:10:55;;;;;;;12.32;1.10;;;;;;;25.66;31.21;99520.22;20444802;28;98338;-81
2022/04/25 15:20:55;;;;;;;;;;;;;;;25.79;29.26;99530.28;20468780;28;97044;-81
2022/04/25 15:30:56;;;;;;;1.35;0.77;;;;;;;25.88;29.26;99549.66;20467171;28;97259;-80
2022/04/25 15:40:57;;;;;;;0.90;0.77;;;;;;;25.89;29.67;99546.84;20470185;28;100085;-81
2022/04/25 15:50:57;;;;;;;2.33;0.90;;;;;;;25.60;29.60;99559.81;20455322;28;99205;-78
2022/04/25 16:00:58;;;;;;;4.45;0.77;;;;;;;25.14;30.94;99568.28;20426731;28;99854;-80
2022/04/25 16:11:00;;;;;;;2.13;0.88;;;;;;;25.15;31.75;99573.41;20457843;28;101155;-79
2022/04/25 16:21:00;;;;;;;2.15;0.90;;;;;;;25.46;30.19;99569.28;20441216;28;97259;-79
2022/04/25 16:31:01;;;;;;;6.90;0.82;;;;;;;25.20;31.41;99572.91;20448866;28;97170;-79
2022/04/25 16:41:03;;;;;;;6.30;1.10;;;;;;;25.10;30.88;99578.38;20456980;28;96829;-80
2022/04/25 16:51:05;;;;;;;4.57;2.15;;;;;;;24.93;31.43;99609.28;20447665;28;98716;-78
2022/04/25 17:01:07;;;;;;;106.95;22.88;;;;;;;24.84;33.13;99629.63;20423629;28;97666;-78
2022/04/25 17:11:08;;;;;;;109.80;22.90;;;;;;;24.70;33.44;99633.72;20460240;28;97820;-78
2022/04/25 17:21:08;;;;;;;84.38;18.98;;;;;;;24.63;34.68;99645.91;20443228;28;100141;-77
2022/04/25 17:42:13;;;;;;;46.30;11.13;;;;;;;24.50;36.84;99669.34;20447436;28;98597;-76
